Time;durP1;ratioP1;P1;durP2;ratioP2;P2;SDS_P1;SDS_P2;PMS_P1;PMS_P2;Temp;Humidity;BMP_temperature;BMP_pressure;BME280_temperature;BME280_humidity;BME280_pressure;Samples;Min_cycle;Max_cycle;Signal;HPM_P1;HPM_P2
2022/01/31 00:00:22;;;;;;;3.72;0.90;;;20.70;44.90;;;;;;5008889;28;20054;-80
2022/01/31 00:02:48;;;;;;;3.20;0.73;;;20.70;45.00;;;;;;4992303;28;20491;-81
2022/01/31 00:05:14;;;;;;;4.20;1.00;;;20.70;45.00;;;;;;4992230;28;20557;-80
2022/01/31 00:07:39;;;;;;;3.47;0.70;;;20.70;45.70;;;;;;4992252;28;20579;-80
2022/01/31 00:10:08;;;;;;;3.40;0.80;;;20.70;45.00;;;;;;4992245;28;20042;-80
2022/01/31 00:12:44;;;;;;;3.55;0.98;;;20.60;45.00;;;;;;4993813;28;20061;-81
2022/01/31 00:15:10;;;;;;;3.65;0.90;;;20.60;45.10;;;;;;5008375;28;20107;-81
2022/01/31 00:17:35;;;;;;;2.92;0.80;;;20.60;45.10;;;;;;5011599;28;20090;-80
2022/01/31 00:20:01;;;;;;;3.55;1.00;;;20.60;45.10;;;;;;5010978;28;20030;-81
2022/01/31 00:22:27;;;;;;;3.30;1.00;;;20.60;45.10;;;;;;5011441;28;20045;-81
2022/01/31 00:24:52;;;;;;;4.60;1.13;;;20.60;45.10;;;;;;5011257;28;20052;-79
2022/01/31 00:27:18;;;;;;;3.25;0.77;;;20.60;45.10;;;;;;5010880;28;20049;-80
2022/01/31 00:29:43;;;;;;;3.65;1.13;;;20.60;45.20;;;;;;5011236;28;20056;-80
2022/01/31 00:32:09;;;;;;;4.40;1.10;;;20.50;45.10;;;;;;5011831;28;20140;-80
2022/01/31 00:34:34;;;;;;;4.00;1.00;;;20.50;45.10;;;;;;5010869;28;20041;-79
2022/01/31 00:37:00;;;;;;;4.35;1.25;;;20.50;45.20;;;;;;5011793;28;20045;-80
2022/01/31 00:39:25;;;;;;;4.47;1.20;;;20.50;45.10;;;;;;5010716;28;20057;-81
2022/01/31 00:41:51;;;;;;;3.00;0.82;;;20.50;45.20;;;;;;5007095;28;20089;-79
2022/01/31 00:44:20;;;;;;;4.45;1.00;;;20.50;45.20;;;;;;5008407;28;20046;-81
2022/01/31 00:46:59;;;;;;;5.70;1.30;;;20.50;45.20;;;;;;5007733;28;20408;-81
2022/01/31 00:51:54;;;;;;;4.55;1.00;;;20.50;45.20;;;;;;5007421;28;20049;-80
2022/01/31 00:54:20;;;;;;;4.97;0.90;;;20.40;45.20;;;;;;5007500;28;20053;-80
2022/01/31 00:56:46;;;;;;;4.28;0.93;;;20.40;45.20;;;;;;5008002;28;20452;-80
2022/01/31 00:59:11;;;;;;;4.28;1.00;;;20.40;45.20;;;;;;5015243;28;20053;-80
2022/01/31 01:01:37;;;;;;;2.92;0.65;;;20.40;45.20;;;;;;5014606;28;20576;-80
2022/01/31 01:04:02;;;;;;;3.03;0.98;;;20.40;45.30;;;;;;5015204;28;20038;-79
2022/01/31 01:06:28;;;;;;;4.30;0.85;;;20.40;45.30;;;;;;5015053;28;20092;-80
2022/01/31 01:08:53;;;;;;;4.65;1.15;;;20.30;45.20;;;;;;5014421;28;20045;-81
2022/01/31 01:11:19;;;;;;;3.58;0.80;;;20.40;45.30;;;;;;4996930;28;20104;-80
2022/01/31 01:13:45;;;;;;;3.38;0.90;;;20.30;45.20;;;;;;4992521;28;20429;-80
2022/01/31 01:16:10;;;;;;;4.50;0.90;;;20.30;45.20;;;;;;4994660;28;20046;-80
2022/01/31 01:18:36;;;;;;;4.25;1.10;;;20.70;45.50;;;;;;4995095;28;20078;-81
2022/01/31 01:21:01;;;;;;;3.72;0.80;;;20.30;45.20;;;;;;4994986;28;20046;-79
2022/01/31 01:23:27;;;;;;;4.95;0.98;;;20.30;45.20;;;;;;4994765;28;20146;-80
2022/01/31 01:25:52;;;;;;;4.68;1.02;;;20.30;45.90;;;;;;4995263;28;20053;-80
2022/01/31 01:28:21;;;;;;;4.20;1.27;;;20.30;45.20;;;;;;4994680;28;20046;-81
2022/01/31 01:30:47;;;;;;;3.22;0.93;;;20.30;45.20;;;;;;5012029;28;20133;-81
2022/01/31 01:33:19;;;;;;;3.40;0.88;;;20.20;45.90;;;;;;5011687;28;20137;-81
2022/01/31 01:35:47;;;;;;;4.60;1.10;;;20.30;45.20;;;;;;4994188;28;20429;-81
2022/01/31 01:38:15;;;;;;;2.58;0.70;;;20.30;45.20;;;;;;4994614;28;20061;-80
2022/01/31 01:40:41;;;;;;;3.80;1.00;;;20.20;45.20;;;;;;4994805;28;20108;-80
2022/01/31 01:43:07;;;;;;;3.92;1.08;;;20.20;45.20;;;;;;4994559;28;20469;-81
2022/01/31 01:45:32;;;;;;;3.20;1.02;;;20.30;45.20;;;;;;4994809;28;20057;-80
2022/01/31 01:47:58;;;;;;;3.80;1.05;;;20.20;45.20;;;;;;4994143;28;20081;-81
2022/01/31 01:50:23;;;;;;;3.70;1.15;;;20.20;45.20;;;;;;4999459;28;20068;-81
2022/01/31 01:52:50;;;;;;;5.50;1.25;;;20.20;45.20;;;;;;4994745;28;20044;-80
2022/01/31 01:55:16;;;;;;;3.45;0.90;;;20.20;45.20;;;;;;4977998;28;20050;-81
2022/01/31 01:57:42;;;;;;;2.53;0.65;;;20.20;45.20;;;;;;4993274;28;20044;-82
2022/01/31 02:00:09;;;;;;;4.07;0.90;;;20.20;45.20;;;;;;4994325;28;20111;-82
2022/01/31 02:02:35;;;;;;;4.20;0.98;;;20.20;45.20;;;;;;4994536;28;20099;-82
2022/01/31 02:05:00;;;;;;;4.07;0.90;;;20.20;45.20;;;;;;4994302;28;20552;-81
2022/01/31 02:07:26;;;;;;;5.35;1.25;;;20.20;45.20;;;;;;4989081;28;20076;-81
2022/01/31 02:09:55;;;;;;;3.05;0.98;;;20.20;45.20;;;;;;5016418;28;20116;-81
2022/01/31 02:12:21;;;;;;;3.58;1.08;;;20.20;45.20;;;;;;5013489;28;20097;-82
2022/01/31 02:14:46;;;;;;;3.22;0.82;;;20.20;45.20;;;;;;5014262;28;20049;-82
2022/01/31 02:17:12;;;;;;;2.88;0.63;;;20.20;45.30;;;;;;5013603;28;20137;-81
2022/01/31 02:19:38;;;;;;;3.53;1.05;;;20.20;45.30;;;;;;5013040;28;20080;-82
2022/01/31 02:22:04;;;;;;;3.17;0.80;;;20.20;45.30;;;;;;5013809;28;20164;-81
2022/01/31 02:24:30;;;;;;;2.55;0.77;;;20.30;45.30;;;;;;5029615;28;20510;-81
2022/01/31 02:26:56;;;;;;;4.25;0.88;;;20.20;45.20;;;;;;5012845;28;20105;-81
2022/01/31 02:29:22;;;;;;;4.20;0.88;;;20.20;45.30;;;;;;5013313;28;20382;-81
2022/01/31 02:31:48;;;;;;;3.83;1.02;;;20.20;45.30;;;;;;5013662;28;20053;-81
2022/01/31 02:34:14;;;;;;;3.95;0.80;;;20.20;45.20;;;;;;5012727;28;20485;-81
2022/01/31 02:36:39;;;;;;;2.60;0.90;;;20.20;45.30;;;;;;5046090;28;20049;-80
2022/01/31 02:39:05;;;;;;;3.15;0.60;;;20.20;45.30;;;;;;5012370;28;20057;-81
2022/01/31 02:41:31;;;;;;;2.50;0.65;;;20.30;45.30;;;;;;5012146;28;20522;-81
2022/01/31 02:43:57;;;;;;;3.05;0.88;;;20.20;45.30;;;;;;5011984;28;20057;-81
2022/01/31 02:46:27;;;;;;;2.28;0.70;;;20.20;45.30;;;;;;5011851;28;20049;-81
2022/01/31 02:48:54;;;;;;;3.33;1.13;;;20.30;45.30;;;;;;5012206;28;20135;-81
2022/01/31 02:51:22;;;;;;;2.10;0.80;;;20.30;45.30;;;;;;5011808;28;20784;-81
2022/01/31 02:53:48;;;;;;;3.92;0.90;;;20.20;45.20;;;;;;5011663;28;20049;-81
2022/01/31 02:56:14;;;;;;;3.05;0.70;;;20.20;45.30;;;;;;5011967;28;20045;-81
2022/01/31 02:58:39;;;;;;;3.10;0.75;;;20.20;45.30;;;;;;4969593;28;20057;-81
2022/01/31 03:01:05;;;;;;;2.40;0.82;;;20.30;45.30;;;;;;4981755;28;20042;-81
2022/01/31 03:03:30;;;;;;;3.50;0.90;;;20.30;45.40;;;;;;5001000;28;20053;-81
2022/01/31 03:05:56;;;;;;;2.70;0.75;;;20.20;45.20;;;;;;5011773;28;20136;-81
2022/01/31 03:08:23;;;;;;;2.95;0.90;;;20.20;45.20;;;;;;5011054;28;20045;-81
2022/01/31 03:10:49;;;;;;;2.35;0.80;;;20.20;45.20;;;;;;5011520;28;20045;-81
2022/01/31 03:13:14;;;;;;;2.15;0.70;;;20.20;45.30;;;;;;5011386;28;20068;-81
2022/01/31 03:15:40;;;;;;;2.88;0.60;;;20.20;45.20;;;;;;5011407;28;20077;-81
2022/01/31 03:18:06;;;;;;;2.30;0.70;;;20.20;45.30;;;;;;5011867;28;20489;-81
2022/01/31 03:20:32;;;;;;;2.17;0.60;;;20.20;45.30;;;;;;5010939;28;20451;-81
2022/01/31 03:22:58;;;;;;;2.83;0.80;;;20.20;45.20;;;;;;5009373;28;20049;-81
2022/01/31 03:25:23;;;;;;;2.97;0.70;;;20.20;45.20;;;;;;5011534;28;20049;-81
2022/01/31 03:27:49;;;;;;;3.17;0.60;;;20.20;45.20;;;;;;5011638;28;20046;-81
2022/01/31 03:30:16;;;;;;;1.90;0.60;;;20.20;45.20;;;;;;5011162;28;20061;-81
2022/01/31 03:32:42;;;;;;;3.05;0.63;;;20.20;45.20;;;;;;5011703;28;20098;-81
2022/01/31 03:35:08;;;;;;;2.30;0.70;;;20.20;45.20;;;;;;5011419;28;20510;-81
2022/01/31 03:37:34;;;;;;;2.13;0.70;;;20.20;45.20;;;;;;5011221;28;20049;-81
2022/01/31 03:40:00;;;;;;;2.40;0.60;;;20.30;45.30;;;;;;4976331;28;1020210;-81
2022/01/31 03:42:25;;;;;;;2.33;0.73;;;20.20;45.30;;;;;;5011494;28;20099;-81
2022/01/31 03:44:53;;;;;;;3.42;0.90;;;20.20;45.30;;;;;;5012397;28;20076;-81
2022/01/31 03:47:22;;;;;;;3.13;0.63;;;20.20;45.20;;;;;;5011793;28;20095;-81
2022/01/31 03:49:48;;;;;;;1.98;0.73;;;20.20;45.20;;;;;;5011775;28;20128;-80
2022/01/31 03:52:14;;;;;;;2.38;0.68;;;20.20;45.20;;;;;;5012102;28;20053;-81
2022/01/31 03:54:40;;;;;;;1.50;0.40;;;20.20;45.20;;;;;;5011947;28;20123;-82
2022/01/31 03:57:05;;;;;;;0.98;0.40;;;20.20;45.20;;;;;;5011338;28;20049;-82
2022/01/31 03:59:31;;;;;;;2.28;0.60;;;20.20;45.20;;;;;;5012282;28;20159;-82
2022/01/31 04:01:56;;;;;;;1.95;0.63;;;20.30;45.30;;;;;;5011581;28;20052;-81
2022/01/31 04:04:22;;;;;;;1.88;0.50;;;20.20;45.20;;;;;;5011324;28;20136;-81
2022/01/31 04:06:48;;;;;;;1.80;0.60;;;20.10;45.20;;;;;;5011588;28;20048;-81
2022/01/31 04:09:13;;;;;;;1.65;0.50;;;20.20;45.20;;;;;;5011691;28;20091;-81
2022/01/31 04:11:41;;;;;;;1.40;0.50;;;20.30;45.30;;;;;;4986322;28;20061;-81
2022/01/31 04:14:07;;;;;;;2.40;0.70;;;20.30;45.30;;;;;;5011478;28;20064;-81
2022/01/31 04:16:33;;;;;;;1.73;0.50;;;20.30;45.30;;;;;;5011262;28;20053;-82
2022/01/31 04:18:58;;;;;;;2.50;0.70;;;21.50;45.90;;;;;;4997840;28;20068;-82
2022/01/31 04:21:24;;;;;;;1.83;0.50;;;20.30;45.30;;;;;;4991933;28;20054;-79
2022/01/31 04:23:51;;;;;;;2.30;0.60;;;20.30;45.30;;;;;;4991618;28;20053;-81
2022/01/31 04:26:17;;;;;;;1.70;0.50;;;20.30;45.30;;;;;;4991547;28;20057;-81
2022/01/31 04:28:45;;;;;;;0.43;0.22;;;20.30;45.30;;;;;;4991833;28;20053;-81
2022/01/31 04:33:45;;;;;;;1.40;0.50;;;20.30;45.30;;;;;;4991138;28;20078;-81
2022/01/31 04:36:14;;;;;;;0.95;0.35;;;20.30;45.30;;;;;;4991651;28;20073;-82
2022/01/31 04:38:46;;;;;;;1.52;0.47;;;20.20;45.20;;;;;;4990945;28;20072;-80
2022/01/31 04:41:11;;;;;;;1.83;0.60;;;20.30;45.20;;;;;;4991518;28;20050;-80
2022/01/31 04:43:37;;;;;;;2.55;0.77;;;20.30;45.20;;;;;;4988735;28;20068;-80
2022/01/31 04:46:05;;;;;;;2.63;0.85;;;20.20;45.20;;;;;;4991472;28;20042;-81
2022/01/31 04:48:30;;;;;;;2.35;0.52;;;20.20;45.20;;;;;;4991785;28;20100;-81
2022/01/31 04:50:56;;;;;;;2.28;0.52;;;20.30;45.30;;;;;;4991476;28;20041;-81
2022/01/31 04:53:22;;;;;;;1.98;0.70;;;20.20;45.20;;;;;;4990891;28;20044;-81
2022/01/31 04:55:47;;;;;;;1.63;0.50;;;20.20;45.20;;;;;;4991506;28;20163;-82
2022/01/31 04:58:13;;;;;;;2.03;0.60;;;20.20;45.20;;;;;;4991619;28;20096;-81
2022/01/31 05:00:38;;;;;;;2.17;0.60;;;20.20;45.20;;;;;;4991288;28;20133;-81
2022/01/31 05:03:10;;;;;;;1.63;0.40;;;20.30;45.20;;;;;;4973669;28;20510;-81
2022/01/31 05:05:36;;;;;;;1.42;0.52;;;20.20;45.20;;;;;;4971663;28;20145;-81
2022/01/31 05:08:02;;;;;;;2.45;0.52;;;20.70;45.50;;;;;;4971403;28;20161;-81
2022/01/31 05:10:27;;;;;;;2.28;0.55;;;20.20;45.20;;;;;;4999018;28;20084;-80
2022/01/31 05:12:53;;;;;;;1.70;0.40;;;20.20;45.20;;;;;;5001450;28;20041;-81
2022/01/31 05:15:18;;;;;;;1.75;0.50;;;20.20;45.20;;;;;;5017425;28;20050;-81
2022/01/31 05:17:44;;;;;;;1.77;0.60;;;20.20;45.20;;;;;;4827735;28;5002629;-81
2022/01/31 05:20:10;;;;;;;2.05;0.40;;;20.20;45.20;;;;;;4996222;28;20273;-81
2022/01/31 05:22:38;;;;;;;2.50;0.60;;;20.20;45.20;;;;;;5010329;28;20034;-81
2022/01/31 05:25:04;;;;;;;1.88;0.50;;;20.20;45.20;;;;;;5011118;28;20060;-82
2022/01/31 05:27:30;;;;;;;1.15;0.45;;;20.20;45.20;;;;;;5027817;28;20061;-82
2022/01/31 05:29:55;;;;;;;1.95;0.70;;;20.20;45.20;;;;;;5010745;28;20132;-82
2022/01/31 05:32:21;;;;;;;1.80;0.40;;;20.20;45.20;;;;;;5010734;28;20444;-82
2022/01/31 05:34:46;;;;;;;2.38;0.57;;;20.20;45.20;;;;;;5010299;28;20628;-83
2022/01/31 05:37:12;;;;;;;1.58;0.30;;;20.30;45.30;;;;;;5010746;28;20041;-83
2022/01/31 05:39:39;;;;;;;1.05;0.32;;;20.30;45.30;;;;;;5010236;28;20054;-82
2022/01/31 05:42:05;;;;;;;1.80;0.55;;;20.20;45.30;;;;;;5010508;28;20128;-82
2022/01/31 05:44:34;;;;;;;1.25;0.30;;;20.30;45.30;;;;;;5013317;28;20500;-82
2022/01/31 05:47:00;;;;;;;2.00;0.70;;;20.30;45.40;;;;;;5015189;28;20042;-83
2022/01/31 05:49:26;;;;;;;1.67;0.63;;;20.30;45.40;;;;;;5031259;28;20798;-82
2022/01/31 05:51:54;;;;;;;1.58;0.68;;;20.30;45.40;;;;;;5014365;28;20049;-82
2022/01/31 05:54:20;;;;;;;1.50;0.55;;;20.30;45.40;;;;;;5029244;28;20044;-82
2022/01/31 05:56:46;;;;;;;1.10;0.40;;;20.30;45.40;;;;;;5013356;28;20061;-82
2022/01/31 05:59:11;;;;;;;1.30;0.40;;;20.60;45.50;;;;;;5014185;28;20064;-82
2022/01/31 06:01:39;;;;;;;1.55;0.35;;;20.40;45.40;;;;;;4997337;28;20712;-82
2022/01/31 06:04:07;;;;;;;1.15;0.50;;;20.40;45.40;;;;;;5013053;28;20045;-82
2022/01/31 06:06:33;;;;;;;2.10;0.40;;;20.40;45.40;;;;;;5013696;28;20045;-82
2022/01/31 06:08:59;;;;;;;1.30;0.30;;;20.40;45.40;;;;;;5013802;28;20044;-82
2022/01/31 06:11:25;;;;;;;1.10;0.47;;;20.70;45.50;;;;;;5013529;28;20159;-82
2022/01/31 06:13:51;;;;;;;1.88;0.40;;;20.40;45.40;;;;;;5014137;28;20061;-82
2022/01/31 06:16:18;;;;;;;1.75;0.73;;;20.40;45.40;;;;;;5013344;28;20475;-82
2022/01/31 06:18:44;;;;;;;1.67;0.30;;;20.40;45.40;;;;;;5013010;28;20091;-82
2022/01/31 06:21:11;;;;;;;1.40;0.52;;;20.40;45.40;;;;;;5016125;28;20061;-82
2022/01/31 06:23:37;;;;;;;1.27;0.35;;;20.40;45.30;;;;;;5013623;28;20072;-82
2022/01/31 06:26:02;;;;;;;1.15;0.43;;;20.50;45.40;;;;;;5013306;28;20050;-81
2022/01/31 06:28:28;;;;;;;0.98;0.30;;;20.50;45.40;;;;;;5012945;28;20516;-82
2022/01/31 06:30:53;;;;;;;1.80;0.50;;;20.50;45.40;;;;;;5007473;28;20125;-82
2022/01/31 06:33:19;;;;;;;2.80;0.40;;;20.50;45.30;;;;;;5007308;28;20054;-82
2022/01/31 06:35:44;;;;;;;1.52;0.40;;;20.50;45.30;;;;;;5028403;28;20056;-82
2022/01/31 06:38:10;;;;;;;1.95;0.50;;;20.80;45.50;;;;;;5010609;28;20562;-82
2022/01/31 06:40:36;;;;;;;1.02;0.30;;;20.50;45.30;;;;;;5012120;28;20061;-82
2022/01/31 06:43:01;;;;;;;1.65;0.40;;;20.50;45.30;;;;;;5020652;28;20045;-82
2022/01/31 06:45:27;;;;;;;0.95;0.30;;;20.50;45.30;;;;;;5012246;28;20096;-82
2022/01/31 06:47:52;;;;;;;1.10;0.30;;;20.50;45.30;;;;;;5010373;28;20049;-82
2022/01/31 06:50:18;;;;;;;1.25;0.40;;;20.50;45.30;;;;;;5030521;28;20052;-82
2022/01/31 06:52:44;;;;;;;1.33;0.30;;;20.50;45.30;;;;;;5026300;28;20180;-82
2022/01/31 06:55:18;;;;;;;1.50;0.40;;;20.60;45.30;;;;;;5011844;28;20045;-82
2022/01/31 06:57:44;;;;;;;1.33;0.32;;;20.60;45.30;;;;;;5012539;28;20046;-82
2022/01/31 07:00:10;;;;;;;1.08;0.30;;;20.60;45.30;;;;;;5012050;28;20068;-82
2022/01/31 07:02:35;;;;;;;1.23;0.30;;;20.60;45.30;;;;;;5005826;28;20061;-78
2022/01/31 07:05:01;;;;;;;1.65;0.50;;;20.60;45.30;;;;;;5045613;28;20049;-83
2022/01/31 07:07:27;;;;;;;1.05;0.30;;;20.60;45.30;;;;;;5011747;28;20033;-82
2022/01/31 07:09:53;;;;;;;1.27;0.25;;;20.70;45.30;;;;;;5012882;28;20049;-82
2022/01/31 07:12:18;;;;;;;0.50;0.20;;;20.60;45.30;;;;;;5012615;28;20061;-82
2022/01/31 07:14:44;;;;;;;1.17;0.47;;;20.60;45.30;;;;;;5011660;28;20081;-81
2022/01/31 07:17:10;;;;;;;1.55;0.30;;;21.10;45.50;;;;;;5030872;28;20041;-81
2022/01/31 07:19:38;;;;;;;0.95;0.30;;;20.60;45.20;;;;;;5012179;28;20054;-81
2022/01/31 07:22:07;;;;;;;1.55;0.40;;;20.60;45.20;;;;;;5012005;28;20133;-81
2022/01/31 07:27:01;;;;;;;0.80;0.30;;;20.60;45.20;;;;;;5010136;28;20095;-81
2022/01/31 07:29:26;;;;;;;1.38;0.40;;;20.60;45.20;;;;;;5006214;28;20098;-80
2022/01/31 07:31:52;;;;;;;1.45;0.20;;;20.60;45.30;;;;;;5012634;28;20609;-81
2022/01/31 07:34:18;;;;;;;1.05;0.20;;;20.60;45.10;;;;;;5027763;28;20128;-81
2022/01/31 07:36:44;;;;;;;1.60;0.40;;;20.60;45.10;;;;;;4995463;28;20077;-81
2022/01/31 07:39:10;;;;;;;1.85;0.35;;;20.60;45.10;;;;;;5011230;28;20057;-81
2022/01/31 07:41:35;;;;;;;1.38;0.38;;;20.60;45.10;;;;;;5011602;28;20049;-81
2022/01/31 07:44:01;;;;;;;1.40;0.40;;;20.60;45.10;;;;;;5012009;28;20049;-81
2022/01/31 07:46:26;;;;;;;1.45;0.40;;;20.60;45.00;;;;;;5011466;28;20067;-81
2022/01/31 07:48:53;;;;;;;1.55;0.25;;;20.60;45.10;;;;;;5011403;28;20092;-81
2022/01/31 07:51:20;;;;;;;2.33;0.30;;;20.60;45.10;;;;;;5014873;28;20057;-81
2022/01/31 07:53:45;;;;;;;1.25;0.30;;;20.60;45.00;;;;;;5033410;28;20417;-81
2022/01/31 07:56:11;;;;;;;1.58;0.63;;;20.60;45.00;;;;;;5028580;28;20063;-81
2022/01/31 07:58:38;;;;;;;1.88;0.55;;;20.60;45.00;;;;;;5023409;28;20060;-81
2022/01/31 08:01:04;;;;;;;1.70;0.30;;;20.60;45.00;;;;;;5011318;28;20041;-81
2022/01/31 08:03:30;;;;;;;1.05;0.20;;;20.60;45.00;;;;;;5011153;28;20482;-81
2022/01/31 08:05:56;;;;;;;2.03;0.40;;;20.60;45.00;;;;;;5013489;28;20266;-81
2022/01/31 08:08:23;;;;;;;1.40;0.30;;;20.60;45.00;;;;;;5009813;28;20037;-81
2022/01/31 08:10:49;;;;;;;1.25;0.20;;;20.60;45.00;;;;;;5010573;28;20079;-81
2022/01/31 08:13:15;;;;;;;1.55;0.50;;;20.60;45.00;;;;;;4990629;28;20521;-82
2022/01/31 08:15:59;;;;;;;2.35;0.38;;;20.60;45.00;;;;;;4991233;28;20500;-81
2022/01/31 08:18:24;;;;;;;1.38;0.40;;;20.60;45.00;;;;;;4997981;28;20091;-81
2022/01/31 08:20:50;;;;;;;1.38;0.30;;;20.50;44.90;;;;;;5011378;28;20084;-81
2022/01/31 08:23:16;;;;;;;1.85;0.50;;;20.50;44.90;;;;;;5009903;28;20037;-81
2022/01/31 08:25:47;;;;;;;1.10;0.30;;;21.00;45.30;;;;;;4987264;28;20049;-81
2022/01/31 08:28:12;;;;;;;1.75;0.50;;;20.50;44.90;;;;;;4986537;28;20054;-82
2022/01/31 08:31:02;;;;;;;0.88;0.22;;;20.50;45.00;;;;;;5016278;28;20056;-81
2022/01/31 08:33:43;;;;;;;1.38;0.20;;;20.50;44.90;;;;;;4985364;28;20481;-81
2022/01/31 08:36:08;;;;;;;1.58;0.30;;;20.50;44.90;;;;;;5007193;28;20058;-81
2022/01/31 08:38:35;;;;;;;0.63;0.20;;;20.50;44.90;;;;;;4988777;28;20695;-81
2022/01/31 08:41:01;;;;;;;1.40;0.30;;;20.50;45.00;;;;;;4982353;28;20078;-80
2022/01/31 08:43:27;;;;;;;1.63;0.50;;;20.50;45.00;;;;;;5001868;28;20072;-81
2022/01/31 08:45:55;;;;;;;1.15;0.20;;;20.50;45.10;;;;;;5008416;28;21222;-78
2022/01/31 08:48:21;;;;;;;2.92;0.68;;;20.50;45.00;;;;;;4979674;28;20057;-78
2022/01/31 08:50:47;;;;;;;2.83;0.40;;;20.50;45.00;;;;;;4993226;28;20136;-77
2022/01/31 08:53:12;;;;;;;2.72;0.50;;;20.50;45.10;;;;;;5004748;28;20741;-77
2022/01/31 08:55:38;;;;;;;3.45;0.40;;;20.50;45.10;;;;;;4998283;28;20067;-78
2022/01/31 08:58:06;;;;;;;3.88;0.70;;;20.50;45.90;;;;;;4981884;28;20497;-77
2022/01/31 09:00:36;;;;;;;2.33;0.45;;;21.80;45.90;;;;;;4988631;28;20100;-76
2022/01/31 09:03:17;;;;;;;1.75;0.38;;;21.50;45.70;;;;;;4989644;28;20054;-76
2022/01/31 09:05:43;;;;;;;1.05;0.28;;;20.40;45.20;;;;;;4990459;28;20160;-76
2022/01/31 09:08:09;;;;;;;3.20;0.52;;;20.40;45.20;;;;;;5021768;28;20525;-76
2022/01/31 09:10:34;;;;;;;3.17;0.50;;;20.40;45.20;;;;;;5003150;28;20140;-77
2022/01/31 09:13:00;;;;;;;3.38;0.55;;;20.40;45.30;;;;;;5006487;28;20065;-84
2022/01/31 09:15:26;;;;;;;2.83;0.45;;;20.40;45.30;;;;;;5021935;28;20596;-79
2022/01/31 09:17:51;;;;;;;1.67;0.30;;;20.40;45.40;;;;;;5009511;28;20139;-79
2022/01/31 09:20:17;;;;;;;1.45;0.32;;;20.40;45.40;;;;;;5024466;28;20480;-79
2022/01/31 09:22:43;;;;;;;1.42;0.30;;;20.40;45.40;;;;;;5008141;28;20053;-79
2022/01/31 09:25:09;;;;;;;1.67;0.52;;;20.40;45.40;;;;;;5007044;28;20131;-82
2022/01/31 09:27:36;;;;;;;2.65;0.40;;;20.40;45.40;;;;;;5043277;28;20061;-78
2022/01/31 09:30:05;;;;;;;2.03;0.50;;;20.50;45.50;;;;;;5010315;28;20064;-80
2022/01/31 09:32:31;;;;;;;0.80;0.22;;;20.50;45.40;;;;;;5003304;28;20096;-80
2022/01/31 09:34:56;;;;;;;1.38;0.30;;;20.50;45.40;;;;;;5015167;28;20084;-80
2022/01/31 09:37:23;;;;;;;1.48;0.40;;;20.50;45.40;;;;;;5014240;28;20048;-80
2022/01/31 09:39:49;;;;;;;2.88;0.30;;;20.50;45.40;;;;;;5011628;28;20045;-79
2022/01/31 09:42:23;;;;;;;3.20;0.50;;;20.50;45.40;;;;;;5011708;28;20404;-78
2022/01/31 09:48:30;;;;;;;2.53;0.30;;;20.50;45.10;;;;;;5008317;28;20383;-80
2022/01/31 09:50:09;;;;;;;2.35;0.40;;;20.50;45.10;;;;;;5018468;28;20050;-78
2022/01/31 09:52:35;;;;;;;3.50;0.50;;;20.50;45.20;;;;;;5007429;28;20100;-79
2022/01/31 09:55:00;;;;;;;4.53;1.17;;;20.50;45.20;;;;;;5008146;28;20068;-78
2022/01/31 09:57:26;;;;;;;3.05;0.40;;;20.40;45.40;;;;;;5013613;28;20174;-78
2022/01/31 09:59:51;;;;;;;2.65;0.52;;;20.40;45.40;;;;;;5006910;28;20053;-78
2022/01/31 10:02:17;;;;;;;1.98;0.40;;;20.40;45.50;;;;;;5005790;28;20052;-79
2022/01/31 10:04:48;;;;;;;2.65;0.40;;;20.40;45.60;;;;;;5010112;28;20046;-78
2022/01/31 10:07:14;;;;;;;2.83;0.30;;;20.40;45.50;;;;;;4997441;28;20037;-79
2022/01/31 10:09:43;;;;;;;4.28;0.63;;;20.30;45.50;;;;;;5000683;28;20061;-79
2022/01/31 10:12:19;;;;;;;2.55;0.40;;;20.30;45.60;;;;;;5012071;28;20500;-80
2022/01/31 10:17:38;;;;;;;3.55;0.50;;;20.30;45.80;;;;;;5007633;28;20048;-80
2022/01/31 10:20:07;;;;;;;3.25;0.47;;;20.30;45.80;;;;;;5029990;28;20098;-80
2022/01/31 10:22:34;;;;;;;5.35;0.60;;;20.30;45.80;;;;;;5026954;28;20140;-79
2022/01/31 10:25:02;;;;;;;2.15;0.43;;;20.30;45.80;;;;;;5040781;28;20068;-79
2022/01/31 10:27:29;;;;;;;1.45;0.30;;;20.30;45.90;;;;;;5023481;28;20051;-77
2022/01/31 10:30:05;;;;;;;2.05;0.35;;;20.30;46.00;;;;;;5029549;28;20379;-78
2022/01/31 10:32:34;;;;;;;3.92;0.50;;;21.20;46.50;;;;;;5012178;28;20053;-78
2022/01/31 10:35:02;;;;;;;2.80;0.45;;;20.20;46.00;;;;;;5026024;28;20041;-78
2022/01/31 10:37:29;;;;;;;2.53;0.43;;;20.20;46.10;;;;;;5031816;28;20094;-78
2022/01/31 10:45:38;;;;;;;6.22;0.85;;;20.20;46.40;;;;;;5047682;28;20050;-80
2022/01/31 10:54:11;;;;;;;1.50;0.30;;;20.30;46.10;;;;;;5032736;28;20132;-79
2022/01/31 10:56:45;;;;;;;0.95;0.30;;;20.30;46.20;;;;;;5032798;28;20094;-79
2022/01/31 10:59:44;;;;;;;1.80;0.50;;;20.30;46.00;;;;;;5032906;28;20088;-79
2022/01/31 11:02:18;;;;;;;3.75;0.20;;;20.30;46.00;;;;;;5046760;28;20068;-79
2022/01/31 11:04:44;;;;;;;1.15;0.40;;;20.40;46.00;;;;;;5032422;28;20578;-79
2022/01/31 11:07:17;;;;;;;1.85;0.20;;;20.40;46.00;;;;;;5031449;28;20048;-79
2022/01/31 11:09:45;;;;;;;3.10;0.50;;;20.40;45.90;;;;;;5032101;28;20049;-79
2022/01/31 11:12:10;;;;;;;0.98;0.30;;;20.40;45.90;;;;;;5032810;28;20057;-79
2022/01/31 11:14:37;;;;;;;2.30;0.32;;;20.40;46.60;;;;;;5044512;28;20053;-79
2022/01/31 11:17:10;;;;;;;2.15;0.20;;;20.40;45.80;;;;;;5027566;28;20037;-77
2022/01/31 11:19:37;;;;;;;1.10;0.20;;;20.50;45.90;;;;;;5024412;28;20055;-77
2022/01/31 11:22:07;;;;;;;2.10;0.20;;;20.50;45.90;;;;;;5064836;28;20084;-77
2022/01/31 11:24:52;;;;;;;1.48;0.38;;;20.50;45.80;;;;;;5031503;28;21974;-78
2022/01/31 11:27:24;;;;;;;1.98;0.30;;;20.50;45.80;;;;;;5014810;28;20143;-78
2022/01/31 11:29:56;;;;;;;2.33;0.40;;;20.50;45.80;;;;;;5032362;28;20041;-78
2022/01/31 11:32:23;;;;;;;1.80;0.30;;;20.50;45.80;;;;;;5031722;28;20059;-79
2022/01/31 11:34:48;;;;;;;2.25;0.52;;;20.50;45.70;;;;;;5031433;28;20080;-79
2022/01/31 11:37:16;;;;;;;1.38;0.20;;;20.60;45.70;;;;;;5031433;28;20891;-79
2022/01/31 11:39:46;;;;;;;2.17;0.20;;;20.60;45.70;;;;;;5030852;28;20064;-79
2022/01/31 11:42:12;;;;;;;1.08;0.20;;;20.60;45.70;;;;;;5013300;28;20508;-79
2022/01/31 11:44:43;;;;;;;1.15;0.30;;;20.60;45.70;;;;;;5031653;28;20041;-79
2022/01/31 11:47:09;;;;;;;1.00;0.30;;;20.60;45.60;;;;;;5028718;28;20049;-79
2022/01/31 11:49:58;;;;;;;0.50;0.10;;;20.70;45.60;;;;;;4692570;28;10000678;-79
2022/01/31 11:52:24;;;;;;;1.73;0.30;;;20.70;45.60;;;;;;5046316;28;20095;-79
2022/01/31 11:54:59;;;;;;;1.25;0.20;;;20.70;45.50;;;;;;5033070;28;20044;-79
2022/01/31 11:57:29;;;;;;;0.88;0.15;;;20.70;45.50;;;;;;5029635;28;20575;-79
2022/01/31 12:00:16;;;;;;;1.27;0.30;;;20.70;46.20;;;;;;5030388;28;20049;-79
2022/01/31 12:02:47;;;;;;;0.98;0.20;;;20.70;45.40;;;;;;5029601;28;20144;-79
2022/01/31 12:05:19;;;;;;;1.50;0.40;;;20.70;45.40;;;;;;5025429;28;20480;-79
2022/01/31 12:07:45;;;;;;;1.38;0.20;;;20.70;45.30;;;;;;5031074;28;20571;-79
2022/01/31 12:10:22;;;;;;;1.33;0.20;;;20.70;45.30;;;;;;5030434;28;20080;-79
2022/01/31 12:16:11;;;;;;;1.13;0.30;;;20.70;45.20;;;;;;5031590;28;20148;-79
2022/01/31 12:19:15;;;;;;;;;;;20.70;45.20;;;;;;5008825;28;20073;-79
2022/01/31 12:22:00;;;;;;;0.98;0.20;;;20.70;45.20;;;;;;5030444;28;20054;-79
2022/01/31 12:24:40;;;;;;;2.08;0.45;;;20.70;45.10;;;;;;4990270;28;20709;-79
2022/01/31 12:27:17;;;;;;;1.05;0.20;;;20.70;45.10;;;;;;5009538;28;20084;-80
2022/01/31 12:29:55;;;;;;;1.80;0.20;;;20.70;45.00;;;;;;5010479;28;20046;-79
2022/01/31 12:32:25;;;;;;;5.38;0.28;;;20.70;45.10;;;;;;5002691;28;20575;-76
2022/01/31 12:34:58;;;;;;;7.78;0.80;;;20.70;44.80;;;;;;4999859;28;20045;-83
2022/01/31 12:37:37;;;;;;;5.82;0.50;;;20.70;44.90;;;;;;4986566;28;20482;-80
2022/01/31 12:40:12;;;;;;;2.25;0.55;;;20.60;44.90;;;;;;4990144;28;20062;-81
2022/01/31 12:45:11;;;;;;;6.03;0.60;;;20.60;45.00;;;;;;4990158;28;20075;-81
2022/01/31 12:47:55;;;;;;;2.92;0.60;;;20.60;45.00;;;;;;5023406;28;20041;-88
2022/01/31 12:50:22;;;;;;;2.75;0.40;;;20.60;45.10;;;;;;5000510;28;20141;-77
2022/01/31 12:52:47;;;;;;;2.53;0.40;;;20.60;45.10;;;;;;4984167;28;20082;-78
2022/01/31 12:55:13;;;;;;;2.35;0.50;;;20.60;45.70;;;;;;4976297;28;20516;-79
2022/01/31 12:57:52;;;;;;;2.65;0.30;;;20.50;45.00;;;;;;4990945;28;20240;-79
2022/01/31 13:00:41;;;;;;;1.90;0.43;;;20.50;45.20;;;;;;4992641;28;20490;-79
2022/01/31 13:03:07;;;;;;;3.28;0.50;;;20.50;45.10;;;;;;5025414;28;20042;-79
2022/01/31 13:05:37;;;;;;;1.60;0.40;;;20.50;45.30;;;;;;4980949;28;20481;-80
2022/01/31 13:08:23;;;;;;;2.08;0.43;;;20.50;45.30;;;;;;4991331;28;20045;-79
2022/01/31 13:10:51;;;;;;;3.13;0.50;;;20.40;45.30;;;;;;4990799;28;20046;-80
2022/01/31 13:13:16;;;;;;;2.05;0.50;;;20.40;45.40;;;;;;4989088;28;20066;-80
2022/01/31 13:15:42;;;;;;;2.25;0.30;;;20.40;45.40;;;;;;4974938;28;21985;-80
2022/01/31 13:18:09;;;;;;;3.35;0.40;;;20.40;45.50;;;;;;4993495;28;20045;-80
2022/01/31 13:20:35;;;;;;;2.55;0.40;;;20.30;45.40;;;;;;4992793;28;20046;-80